Time;durP1;ratioP1;P1;durP2;ratioP2;P2;SDS_P1;SDS_P2;PMS_P1;PMS_P2;Temp;Humidity;BMP_temperature;BMP_pressure;BME280_temperature;BME280_humidity;BME280_pressure;Samples;Min_cycle;Max_cycle;Signal;HPM_P1;HPM_P2
2023/10/11 00:02:55;;;;;;;5.47;3.10;;;;;;;-141.97;49.73;47630.56;5034036;28;20170;-91
2023/10/11 00:05:21;;;;;;;7.87;3.20;;;;;;;-141.97;49.52;47422.97;5016052;28;20678;-92
2023/10/11 00:07:47;;;;;;;6.37;3.23;;;;;;;-141.97;49.76;47407.59;5033505;28;20174;-91
2023/10/11 00:10:19;;;;;;;9.00;3.27;;;;;;;-141.97;49.42;47426.81;5015821;28;20184;-92
2023/10/11 00:12:50;;;;;;;5.47;3.17;;;;;;;-141.97;49.32;47472.94;5017765;28;20182;-91
2023/10/11 00:15:16;;;;;;;4.63;3.00;;;;;;;-141.97;49.05;47651.69;5037631;28;20276;-92
2023/10/11 00:17:46;;;;;;;7.03;3.17;;;;;;;-141.97;49.05;47626.72;5052854;28;20174;-92
2023/10/11 00:22:56;;;;;;;6.73;3.27;;;;;;;-141.97;49.10;47463.34;5033922;28;20188;-92
2023/10/11 00:25:25;;;;;;;10.80;3.40;;;;;;;-141.97;49.05;47426.81;5015292;28;20253;-91
2023/10/11 00:27:58;;;;;;;4.93;3.30;;;;;;;-141.97;48.76;47513.31;5015534;28;20869;-91
2023/10/11 00:30:25;;;;;;;5.97;3.07;;;;;;;-141.97;48.70;47276.91;5015133;28;20232;-90
2023/10/11 00:32:54;;;;;;;5.37;3.30;;;;;;;-141.97;48.38;47640.16;5015003;28;20588;-91
2023/10/11 00:35:20;;;;;;;8.73;3.50;;;;;;;-141.97;48.76;47503.69;5014970;28;20196;-90
2023/10/11 00:37:49;;;;;;;7.43;3.40;;;;;;;-141.97;48.70;47519.06;5014932;28;20163;-89
2023/10/11 00:40:25;;;;;;;6.93;3.30;;;;;;;-141.97;48.47;47526.75;5026286;28;20243;-90
2023/10/11 00:42:50;;;;;;;4.80;2.77;;;;;;;-141.97;48.50;47409.53;5020690;28;20236;-90
2023/10/11 00:45:17;;;;;;;4.83;2.97;;;;;;;-141.97;48.53;47665.16;5022113;28;20238;-89
2023/10/11 00:47:45;;;;;;;6.47;3.37;;;;;;;-141.97;48.23;47667.06;5020702;28;20189;-89
2023/10/11 00:50:14;;;;;;;6.00;3.20;;;;;;;-141.97;48.47;47615.19;5016819;28;20556;-89
2023/10/11 00:52:45;;;;;;;6.87;2.90;;;;;;;-141.97;48.50;47611.34;5016458;28;20626;-89
2023/10/11 00:55:16;;;;;;;6.30;2.80;;;;;;;-141.97;48.29;47467.19;5036490;28;20202;-89
2023/10/11 00:57:45;;;;;;;7.27;2.80;;;;;;;-141.97;47.80;47551.75;5021392;28;20178;-89
2023/10/11 01:00:14;;;;;;;6.90;3.00;;;;;;;-141.97;47.86;47584.44;5014826;28;20186;-89
2023/10/11 01:02:39;;;;;;;4.93;2.63;;;;;;;-141.97;47.95;47530.59;5014429;28;20201;-88
2023/10/11 01:05:06;;;;;;;5.23;2.63;;;;;;;-141.97;47.71;47332.66;5015214;28;20211;-87
2023/10/11 01:07:32;;;;;;;5.87;2.57;;;;;;;-141.97;47.79;47636.31;5033246;28;20193;-89
2023/10/11 01:09:57;;;;;;;5.77;3.10;;;;;;;-141.97;47.45;47634.41;5038858;28;20166;-89
2023/10/11 01:12:30;;;;;;;10.03;2.50;;;;;;;-141.97;47.08;47398.00;5035540;28;20189;-89
2023/10/11 01:14:58;;;;;;;5.63;2.40;;;;;;;-141.97;47.19;47576.75;4999277;28;20311;-89
2023/10/11 01:17:31;;;;;;;7.70;2.73;;;;;;;-141.97;47.00;47340.34;4995341;28;20520;-90
2023/10/11 01:20:00;;;;;;;6.30;2.50;;;;;;;-141.97;47.15;47517.16;4997679;28;20182;-89
2023/10/11 01:22:27;;;;;;;4.37;2.40;;;;;;;-141.97;47.04;47595.97;5013917;28;20182;-90
2023/10/11 01:24:54;;;;;;;5.67;2.57;;;;;;;-141.97;46.79;47398.00;5013739;28;20259;-90
2023/10/11 01:27:30;;;;;;;5.67;2.40;;;;;;;-141.97;46.73;47684.38;5014111;28;20178;-90
2023/10/11 01:29:57;;;;;;;6.77;2.80;;;;;;;-141.97;46.56;47442.19;5013778;28;20169;-91
2023/10/11 01:32:23;;;;;;;6.20;2.50;;;;;;;-141.97;46.67;47451.81;5014019;28;20173;-90
2023/10/11 01:34:49;;;;;;;4.80;2.30;;;;;;;-141.97;46.48;47611.34;5014485;28;20166;-91
2023/10/11 01:37:14;;;;;;;4.57;2.20;;;;;;;-141.97;46.79;47553.69;5014245;28;20322;-92
2023/10/11 01:39:40;;;;;;;6.43;2.40;;;;;;;-141.97;46.50;47415.28;5031726;28;20619;-90
2023/10/11 01:42:05;;;;;;;7.03;2.40;;;;;;;-141.97;46.44;47580.59;5016580;28;20327;-91
2023/10/11 01:44:33;;;;;;;6.43;2.57;;;;;;;-141.97;46.01;47672.84;5017605;28;20259;-89
2023/10/11 01:47:00;;;;;;;6.90;2.63;;;;;;;-141.97;46.24;47444.13;5036274;28;20199;-89
2023/10/11 01:49:25;;;;;;;7.43;2.20;;;;;;;-141.97;46.44;47572.91;5032302;28;20188;-89
2023/10/11 01:51:52;;;;;;;4.93;2.40;;;;;;;-141.97;46.81;47447.97;5052265;28;20201;-88
2023/10/11 01:54:22;;;;;;;5.30;2.27;;;;;;;-141.97;46.85;47480.63;5025717;28;20261;-89
2023/10/11 01:56:48;;;;;;;5.10;2.37;;;;;;;-141.97;47.10;47426.81;5016583;28;20292;-91
2023/10/11 01:59:15;;;;;;;3.83;2.30;;;;;;;-141.97;47.25;47367.25;5031702;28;20304;-90
2023/10/11 02:01:41;;;;;;;3.70;2.60;;;;;;;-141.97;47.46;47632.47;5013866;28;20174;-91
2023/10/11 02:04:17;;;;;;;7.03;3.10;;;;;;;-141.97;47.37;47557.53;5015172;28;20223;-90
2023/10/11 02:06:43;;;;;;;4.83;3.27;;;;;;;-141.97;47.49;47524.84;5014480;28;20165;-91
2023/10/11 02:09:09;;;;;;;5.00;2.87;;;;;;;-141.97;47.44;47480.63;5027788;28;20223;-92
2023/10/11 02:11:36;;;;;;;4.57;2.40;;;;;;;-141.97;47.14;47438.34;5041753;28;20166;-92
2023/10/11 02:14:01;;;;;;;7.93;2.37;;;;;;;-141.97;47.28;47546.00;5048548;28;20193;-92
2023/10/11 02:16:32;;;;;;;4.17;2.30;;;;;;;-141.97;47.13;47582.50;5039227;28;20669;-92
2023/10/11 02:19:00;;;;;;;4.03;2.40;;;;;;;-141.97;47.49;47521.00;5040769;28;20165;-90
2023/10/11 02:21:29;;;;;;;3.93;2.20;;;;;;;-141.97;46.91;47546.00;5024152;28;20604;-90
2023/10/11 02:23:59;;;;;;;7.57;2.40;;;;;;;-141.97;47.08;47686.31;5017808;28;20233;-92
2023/10/11 02:26:34;;;;;;;4.43;2.40;;;;;;;-141.97;46.76;47672.84;5017646;28;20488;-90
2023/10/11 02:29:00;;;;;;;6.23;2.43;;;;;;;-141.97;47.02;47651.69;5017590;28;20212;-92
2023/10/11 02:31:27;;;;;;;5.80;2.50;;;;;;;-141.97;46.95;47561.38;5017488;28;20186;-92
2023/10/11 02:34:03;;;;;;;7.90;2.80;;;;;;;-141.97;46.87;47561.38;5036966;28;20166;-91
2023/10/11 02:36:34;;;;;;;7.37;3.00;;;;;;;-141.97;46.94;47676.69;5017367;28;20197;-91
2023/10/11 02:39:00;;;;;;;9.07;2.60;;;;;;;-141.97;46.76;47546.00;5017269;28;20627;-94
2023/10/11 02:41:25;;;;;;;4.97;2.83;;;;;;;-141.97;46.85;47557.53;5017060;28;20193;-91
2023/10/11 02:43:57;;;;;;;10.77;2.70;;;;;;;-141.97;46.73;47522.91;5007965;28;20229;-93
2023/10/11 02:46:24;;;;;;;10.87;2.60;;;;;;;-141.97;46.70;47638.25;5020116;28;20165;-92
2023/10/11 02:48:54;;;;;;;5.27;2.70;;;;;;;-141.97;46.83;47507.53;5017234;28;20181;-91
2023/10/11 02:51:24;;;;;;;8.13;2.70;;;;;;;-141.97;47.03;47538.28;5017617;28;20213;-90
2023/10/11 02:53:53;;;;;;;3.73;2.27;;;;;;;-141.97;46.71;47569.06;5022454;28;20224;-91
2023/10/11 02:56:19;;;;;;;4.67;2.70;;;;;;;-141.97;47.37;47549.84;5019856;28;20257;-90
2023/10/11 02:58:46;;;;;;;6.47;2.60;;;;;;;-141.97;46.65;47553.69;5044781;28;20186;-90
2023/10/11 03:01:15;;;;;;;5.57;2.80;;;;;;;-141.97;46.70;47569.06;5018105;28;20216;-89
2023/10/11 03:03:42;;;;;;;3.83;2.50;;;;;;;-141.97;47.00;47576.75;5018342;28;20174;-90
2023/10/11 03:06:10;;;;;;;6.27;2.73;;;;;;;-141.97;46.71;47434.50;5037143;28;20166;-91
2023/10/11 03:08:37;;;;;;;6.60;3.20;;;;;;;-141.97;46.71;47611.34;5040358;28;20238;-90
2023/10/11 03:11:09;;;;;;;6.03;3.23;;;;;;;-141.97;46.47;47534.44;5040164;28;20238;-92
2023/10/11 03:13:44;;;;;;;7.10;2.90;;;;;;;-141.97;46.65;47405.69;5041381;28;20158;-89
2023/10/11 03:16:11;;;;;;;3.93;2.90;;;;;;;-141.97;46.68;47561.38;5038157;28;20202;-90
2023/10/11 03:18:39;;;;;;;4.43;2.70;;;;;;;-141.97;46.65;47522.91;5041588;28;20184;-90
2023/10/11 03:21:19;;;;;;;5.30;2.93;;;;;;;-141.97;46.55;47530.59;5039977;28;20201;-89
2023/10/11 03:23:52;;;;;;;4.30;2.93;;;;;;;-141.97;46.77;47469.09;5020933;28;20664;-92
2023/10/11 03:26:31;;;;;;;5.23;3.20;;;;;;;-141.97;46.50;47690.16;5026682;28;20249;-92
2023/10/11 03:29:04;;;;;;;5.30;3.20;;;;;;;-141.97;46.39;47547.91;5028857;28;20194;-89
2023/10/11 03:31:34;;;;;;;4.73;3.30;;;;;;;-141.97;46.50;47446.03;5018824;28;20178;-91
2023/10/11 03:34:21;;;;;;;6.33;3.30;;;;;;;-141.97;46.47;47649.78;5017285;28;20663;-91
2023/10/11 03:36:50;;;;;;;4.90;3.23;;;;;;;-141.97;46.18;47521.00;5018803;28;20189;-93
2023/10/11 03:40:11;;;;;;;7.80;3.23;;;;;;;-141.97;46.38;47536.38;5019667;28;20245;-92
2023/10/11 03:44:39;;;;;;;6.43;3.40;;;;;;;-141.97;46.13;47505.63;5026728;28;20240;-92
2023/10/11 03:47:09;;;;;;;4.93;3.20;;;;;;;-141.97;46.24;47534.44;5019776;28;20233;-93
2023/10/11 03:49:49;;;;;;;12.20;5.37;;;;;;;-141.97;45.91;47563.28;5032190;28;20533;-92
2023/10/11 03:52:22;;;;;;;5.80;3.20;;;;;;;-141.97;45.79;47547.91;5034934;28;20228;-94
2023/10/11 03:55:01;;;;;;;6.87;3.20;;;;;;;-141.97;45.55;47338.41;5038971;28;20206;-93
2023/10/11 03:57:27;;;;;;;7.00;3.10;;;;;;;-141.97;45.63;47590.19;5040865;28;20184;-95
2023/10/11 03:59:54;;;;;;;8.30;3.40;;;;;;;-141.97;45.71;47559.44;5040503;28;20174;-92
2023/10/11 04:02:19;;;;;;;5.20;3.40;;;;;;;-141.97;45.59;47634.41;5039068;28;20166;-92
2023/10/11 04:04:49;;;;;;;9.90;3.27;;;;;;;-141.97;45.90;47570.97;5039247;28;20238;-92
2023/10/11 04:07:17;;;;;;;7.80;3.40;;;;;;;-141.97;45.79;47603.66;5027144;28;20166;-93
2023/10/11 04:09:46;;;;;;;6.93;3.30;;;;;;;-141.97;45.42;47461.41;5030695;28;20193;-89
2023/10/11 04:12:12;;;;;;;6.93;3.20;;;;;;;-141.97;45.20;47630.56;5040177;28;20173;-90
2023/10/11 04:14:45;;;;;;;8.37;3.27;;;;;;;-141.97;45.29;47542.16;5046925;28;20181;-90
2023/10/11 04:19:50;;;;;;;7.13;3.77;;;;;;;-141.97;45.66;47565.22;5051199;28;20177;-92
2023/10/11 04:22:18;;;;;;;7.07;3.40;;;;;;;-141.97;45.46;47396.06;5030843;28;20174;-93
2023/10/11 04:24:45;;;;;;;9.80;3.40;;;;;;;-141.97;45.69;47309.59;5032021;28;20204;-92
2023/10/11 04:29:47;;;;;;;5.27;3.30;;;;;;;-141.97;45.41;47617.09;5051610;28;20196;-92
2023/10/11 04:32:14;;;;;;;8.13;3.40;;;;;;;-141.97;45.72;47422.97;5037584;28;20172;-92
2023/10/11 04:34:48;;;;;;;6.03;3.70;;;;;;;-141.97;45.63;47419.13;5019468;28;20182;-91
2023/10/11 04:37:43;;;;;;;7.70;3.70;;;;;;;-141.97;45.32;47469.09;5032358;28;20260;-93
2023/10/11 04:40:23;;;;;;;7.40;3.53;;;;;;;-141.97;45.35;47538.28;5026107;28;20531;-94
2023/10/11 04:43:04;;;;;;;7.47;3.60;;;;;;;-141.97;45.40;47715.13;5030129;28;20181;-93
2023/10/11 04:45:31;;;;;;;6.00;3.63;;;;;;;-141.97;45.32;47488.31;5015326;28;20256;-93
2023/10/11 04:47:58;;;;;;;7.23;3.60;;;;;;;-141.97;45.04;47480.63;5019958;28;20193;-89
2023/10/11 04:50:24;;;;;;;11.00;3.90;;;;;;;-141.97;45.32;47434.50;5023998;28;20177;-90
2023/10/11 04:52:49;;;;;;;9.87;3.90;;;;;;;-141.97;45.33;47449.88;4999056;28;20214;-92
2023/10/11 04:58:07;;;;;;;8.67;4.27;;;;;;;-141.97;45.40;47440.28;4993633;28;20231;-93
2023/10/11 05:00:43;;;;;;;10.47;4.07;;;;;;;-141.97;45.26;47422.97;4977421;28;20172;-93
2023/10/11 05:03:10;;;;;;;8.60;3.80;;;;;;;-141.97;45.12;47319.19;4976872;28;20195;-92
2023/10/11 05:05:35;;;;;;;5.03;3.90;;;;;;;-141.97;45.41;47365.31;4977601;28;20312;-94
2023/10/11 05:08:04;;;;;;;7.83;3.90;;;;;;;-141.97;45.22;47615.19;4976284;28;20630;-93
2023/10/11 05:10:43;;;;;;;9.40;3.90;;;;;;;-141.97;45.25;47396.06;4980430;28;20225;-92
2023/10/11 05:13:13;;;;;;;7.53;3.90;;;;;;;-141.97;45.12;47361.47;4994304;28;20194;-92
2023/10/11 05:15:47;;;;;;;11.20;4.50;;;;;;;-141.97;45.28;47576.75;4998022;28;20226;-92
2023/10/11 05:18:24;;;;;;;10.50;4.13;;;;;;;-141.97;44.96;47615.19;4985218;28;20727;-92
2023/10/11 05:21:00;;;;;;;10.77;4.27;;;;;;;-141.97;44.79;47665.16;4977944;28;20178;-91
2023/10/11 05:23:41;;;;;;;15.07;4.13;;;;;;;-141.97;44.93;47553.69;4989094;28;20189;-92
2023/10/11 05:26:36;;;;;;;4.63;3.40;;;;;;;-141.97;45.00;47659.38;5009069;28;20166;-91
2023/10/11 05:29:09;;;;;;;7.77;3.90;;;;;;;-141.97;44.90;47465.25;5037762;28;20163;-93
2023/10/11 05:31:44;;;;;;;11.03;4.10;;;;;;;-141.97;44.88;47547.91;5016893;28;20170;-93
2023/10/11 05:34:45;;;;;;;5.27;3.37;;;;;;;-141.97;44.56;47424.91;5018119;28;20252;-92
2023/10/11 05:50:50;;;;;;;6.70;3.60;;;;;;;-141.97;44.42;47472.94;5046685;28;20199;-91
2023/10/11 05:53:18;;;;;;;7.00;3.60;;;;;;;-141.97;44.68;47663.22;5038790;28;20236;-91
2023/10/11 05:55:43;;;;;;;9.30;3.60;;;;;;;-141.97;44.33;47559.44;5056048;28;20291;-91
2023/10/11 05:58:09;;;;;;;9.17;3.60;;;;;;;-141.97;44.43;47415.28;5037455;28;20174;-91
2023/10/11 06:00:38;;;;;;;7.53;3.30;;;;;;;-141.97;44.37;47321.13;5033502;28;20241;-86
2023/10/11 06:03:14;;;;;;;8.17;3.30;;;;;;;-141.97;44.72;47563.28;5012661;28;20556;-89
2023/10/11 06:05:39;;;;;;;7.03;3.57;;;;;;;-141.97;44.59;47365.31;5013067;28;20625;-86
2023/10/11 06:08:07;;;;;;;13.60;3.93;;;;;;;-141.97;44.21;47592.13;5034367;28;20223;-86
2023/10/11 06:10:41;;;;;;;7.50;3.37;;;;;;;-141.97;44.33;47534.44;5047771;28;20154;-84
2023/10/11 06:13:13;;;;;;;8.70;3.70;;;;;;;-141.97;43.96;47711.28;5026263;28;20591;-84
2023/10/11 06:16:00;;;;;;;9.67;3.80;;;;;;;-141.97;44.46;47472.94;5032248;28;20186;-85
2023/10/11 06:18:39;;;;;;;8.20;3.50;;;;;;;-141.97;43.37;47557.53;5021402;28;20177;-86
2023/10/11 06:21:05;;;;;;;5.83;3.30;;;;;;;-141.97;42.54;47465.25;5031554;28;20154;-85
2023/10/11 06:23:32;;;;;;;8.80;3.10;;;;;;;-141.97;42.01;47582.50;5013298;28;20189;-87
2023/10/11 06:25:59;;;;;;;12.37;3.50;;;;;;;-141.97;41.64;47522.91;5012779;28;20189;-86
2023/10/11 06:28:31;;;;;;;7.77;3.27;;;;;;;-141.97;41.42;47503.69;5030819;28;20154;-84
2023/10/11 06:31:00;;;;;;;12.50;3.50;;;;;;;-141.97;41.54;47342.25;5013968;28;20220;-84
2023/10/11 06:33:27;;;;;;;4.60;2.80;;;;;;;-141.97;40.81;47513.31;5031050;28;20167;-87
2023/10/11 06:35:53;;;;;;;8.27;3.03;;;;;;;-141.97;41.13;47526.75;5012615;28;20204;-85
2023/10/11 06:38:21;;;;;;;4.97;2.70;;;;;;;-141.97;40.97;47521.00;5031294;28;20212;-85
2023/10/11 06:40:48;;;;;;;7.47;2.90;;;;;;;-141.97;40.47;47565.22;5031051;28;20170;-85
2023/10/11 06:43:15;;;;;;;4.27;2.70;;;;;;;-141.97;40.72;47422.97;5015456;28;20320;-86
2023/10/11 06:45:41;;;;;;;8.30;3.03;;;;;;;-141.97;40.81;47547.91;5021028;28;20729;-84
2023/10/11 06:48:08;;;;;;;7.90;2.70;;;;;;;-141.97;40.33;47542.16;5030636;28;20166;-84
2023/10/11 06:50:40;;;;;;;6.67;3.00;;;;;;;-141.97;40.79;47484.47;5030729;28;20162;-84
2023/10/11 06:53:11;;;;;;;5.73;3.00;;;;;;;-141.97;41.24;47699.75;5012890;28;20177;-86
2023/10/11 06:55:47;;;;;;;8.03;3.00;;;;;;;-141.97;41.21;47661.31;5031326;28;20252;-84
2023/10/11 06:58:16;;;;;;;6.10;2.90;;;;;;;-141.97;40.65;47540.22;5049889;28;20261;-85
2023/10/11 07:00:48;;;;;;;7.10;2.80;;;;;;;-141.97;40.74;47546.00;5030161;28;20223;-86
2023/10/11 07:05:48;;;;;;;5.67;2.90;;;;;;;-141.97;40.83;47536.38;5047484;28;20174;-85
2023/10/11 07:08:35;;;;;;;7.47;3.03;;;;;;;-141.97;41.11;47469.09;5033729;28;20216;-85
2023/10/11 07:11:19;;;;;;;7.63;3.47;;;;;;;-141.97;40.93;47492.16;5033798;28;20168;-88
2023/10/11 07:14:01;;;;;;;8.00;3.10;;;;;;;-141.97;42.10;47607.50;5015875;28;20185;-87
2023/10/11 07:16:31;;;;;;;8.30;3.20;;;;;;;-141.97;41.75;47672.84;5040262;28;20312;-88
2023/10/11 07:19:00;;;;;;;7.07;3.40;;;;;;;-141.97;41.02;47634.41;5047939;28;20192;-87
2023/10/11 07:27:09;;;;;;;6.30;3.60;;;;;;;-141.97;40.96;47392.22;5032893;28;20637;-86
2023/10/11 07:29:46;;;;;;;5.70;3.27;;;;;;;-141.97;40.34;47424.91;5033369;28;20170;-86
2023/10/11 07:32:18;;;;;;;10.40;3.77;;;;;;;-141.97;40.62;47480.63;5013469;28;20981;-86
2023/10/11 07:34:54;;;;;;;7.40;3.50;;;;;;;-141.97;40.74;47324.97;5028266;28;20270;-86
2023/10/11 07:37:26;;;;;;;8.03;3.70;;;;;;;-141.97;40.30;47557.53;5033421;28;20205;-85
2023/10/11 07:39:59;;;;;;;6.30;3.73;;;;;;;-141.97;40.26;47353.78;5036283;28;20245;-85
2023/10/11 07:42:26;;;;;;;8.70;3.50;;;;;;;-141.97;40.11;47374.94;5053265;28;20554;-83
2023/10/11 07:44:52;;;;;;;5.57;3.23;;;;;;;-141.97;40.31;47634.41;5034943;28;20270;-84
2023/10/11 07:47:18;;;;;;;8.03;3.87;;;;;;;-141.97;40.56;47380.69;5015006;28;20554;-86
2023/10/11 07:49:49;;;;;;;6.93;3.40;;;;;;;-141.97;39.97;47603.66;5032991;28;20154;-85
2023/10/11 07:52:19;;;;;;;7.67;3.30;;;;;;;-141.97;40.11;47680.53;5016301;28;20209;-84
2023/10/11 07:54:44;;;;;;;11.00;3.60;;;;;;;-141.97;39.49;47638.25;5034705;28;20158;-83
2023/10/11 07:57:21;;;;;;;7.13;3.67;;;;;;;-141.97;39.54;47636.31;5017557;28;20619;-84
2023/10/11 08:03:18;;;;;;;10.20;3.80;;;;;;;-141.97;39.44;47403.75;4911669;29;20659;-85
2023/10/11 08:08:20;;;;;;;8.97;3.73;;;;;;;-141.97;39.11;47526.75;5088488;23;20229;-82
2023/10/11 08:10:45;;;;;;;9.23;3.60;;;;;;;-141.97;38.98;47511.38;5008178;28;20203;-84
2023/10/11 08:16:50;;;;;;;14.77;3.70;;;;;;;-141.97;37.97;47569.06;5032704;28;20331;-86
2023/10/11 08:19:17;;;;;;;7.17;3.47;;;;;;;-141.97;37.66;47542.16;4958608;29;20208;-85
2023/10/11 08:21:55;;;;;;;8.20;3.80;;;;;;;-141.97;38.45;47463.34;4950486;29;20239;-87
2023/10/11 08:24:25;;;;;;;10.03;4.00;;;;;;;-141.97;38.17;47530.59;4941732;28;20204;-86
2023/10/11 08:27:05;;;;;;;8.93;3.73;;;;;;;-141.97;37.45;47542.16;4950912;29;20188;-86
2023/10/11 08:29:32;;;;;;;6.83;3.17;;;;;;;-141.97;38.03;47492.16;4935587;29;20181;-87
2023/10/11 08:31:58;;;;;;;5.27;3.17;;;;;;;-141.97;37.87;47434.50;4948410;29;20188;-86
2023/10/11 08:34:28;;;;;;;6.97;3.83;;;;;;;-141.97;37.70;47476.78;4932991;29;20177;-87
2023/10/11 08:36:56;;;;;;;6.10;3.70;;;;;;;-141.97;37.71;47511.38;4932661;29;20727;-86
2023/10/11 08:42:16;;;;;;;10.57;3.50;;;;;;;-141.97;37.22;47546.00;4951315;28;20687;-85
2023/10/11 08:44:45;;;;;;;7.80;3.57;;;;;;;-141.97;37.14;47688.22;4951843;29;20168;-85
2023/10/11 08:47:16;;;;;;;7.40;3.53;;;;;;;-141.97;36.72;47496.00;4951451;29;20235;-86
2023/10/11 08:49:48;;;;;;;7.83;3.37;;;;;;;-141.97;37.07;47388.38;4952605;29;20198;-87
2023/10/11 08:52:18;;;;;;;6.47;3.40;;;;;;;-141.97;37.31;47526.75;4947525;29;20293;-85
2023/10/11 08:54:44;;;;;;;6.37;3.57;;;;;;;-141.97;37.71;47449.88;4932357;29;20205;-86
2023/10/11 08:57:13;;;;;;;10.40;3.90;;;;;;;-141.97;38.64;47530.59;4965920;28;20250;-85
2023/10/11 08:59:49;;;;;;;6.93;3.60;;;;;;;-141.97;38.52;47544.06;4981484;28;20199;-86
2023/10/11 09:02:17;;;;;;;5.80;3.47;;;;;;;-141.97;38.42;47526.75;4989468;28;20517;-84
2023/10/11 09:05:07;;;;;;;7.00;3.30;;;;;;;-141.97;37.39;47549.84;4990450;28;20178;-86
2023/10/11 09:07:45;;;;;;;6.93;3.73;;;;;;;-141.97;37.44;47522.91;4970168;28;20251;-86
2023/10/11 09:10:22;;;;;;;5.20;3.43;;;;;;;-141.97;37.34;47509.47;4986500;28;20190;-86
2023/10/11 09:12:49;;;;;;;8.17;3.77;;;;;;;-141.97;37.83;47553.69;4980698;28;20179;-85
2023/10/11 09:15:15;;;;;;;8.00;3.60;;;;;;;-141.97;37.54;47519.06;4996144;28;20260;-87
2023/10/11 09:17:40;;;;;;;9.63;3.70;;;;;;;-141.97;37.91;47476.78;5013233;28;20197;-87
2023/10/11 09:20:17;;;;;;;6.00;3.40;;;;;;;-141.97;37.59;47542.16;5012051;28;20202;-86
2023/10/11 09:22:47;;;;;;;10.73;3.80;;;;;;;-141.97;38.49;47499.84;5031256;28;20174;-85
2023/10/11 09:25:22;;;;;;;10.60;4.40;;;;;;;-141.97;37.97;47388.38;5013060;28;20174;-88
2023/10/11 09:27:51;;;;;;;9.30;4.50;;;;;;;-141.97;38.26;47517.16;5031278;28;20162;-87
2023/10/11 09:30:21;;;;;;;9.27;4.40;;;;;;;-141.97;38.86;47442.19;5030608;28;20637;-85
2023/10/11 09:32:51;;;;;;;10.70;4.63;;;;;;;-141.97;38.37;47522.91;5030634;28;20178;-85
2023/10/11 09:35:29;;;;;;;9.03;5.50;;;;;;;-141.97;38.15;47461.41;5030855;28;20262;-85
2023/10/11 09:37:56;;;;;;;9.07;5.90;;;;;;;-141.97;37.42;47634.41;5030893;28;20486;-86
2023/10/11 09:40:34;;;;;;;13.27;6.77;;;;;;;-141.97;37.47;47718.97;5030393;28;20170;-86
2023/10/11 09:43:00;;;;;;;16.60;11.80;;;;;;;-141.97;37.77;47513.31;5013079;28;20634;-87
2023/10/11 09:45:30;;;;;;;16.13;11.27;;;;;;;-141.97;37.95;47684.38;5014363;28;20612;-86
2023/10/11 09:47:56;;;;;;;12.77;8.00;;;;;;;-141.97;38.56;47434.50;5030577;28;20166;-86
2023/10/11 09:50:26;;;;;;;15.87;9.83;;;;;;;-141.97;37.70;47547.91;5030915;28;20260;-86
2023/10/11 09:52:53;;;;;;;12.77;7.23;;;;;;;-141.97;38.08;47740.13;5031149;28;20260;-85
2023/10/11 09:55:31;;;;;;;12.80;7.03;;;;;;;-141.97;38.07;47488.31;5035223;28;20178;-85
2023/10/11 09:58:11;;;;;;;17.07;7.70;;;;;;;-141.97;38.17;47501.78;5045656;28;20162;-85
2023/10/11 10:00:52;;;;;;;13.07;8.70;;;;;;;-141.97;38.90;47569.06;5043209;28;20201;-85
2023/10/11 10:03:17;;;;;;;10.07;7.40;;;;;;;-141.97;38.37;47503.69;5042199;28;20178;-87
2023/10/11 10:06:27;;;;;;;13.03;8.93;;;;;;;-141.97;38.32;47507.53;5042100;28;20236;-86
2023/10/11 10:09:23;;;;;;;18.23;11.60;;;;;;;-141.97;38.97;47519.06;5028262;28;20831;-86
2023/10/11 10:12:06;;;;;;;50.10;18.00;;;;;;;-141.97;39.45;47538.28;4993257;28;20172;-86
2023/10/11 10:14:35;;;;;;;16.67;11.50;;;;;;;-141.97;37.99;47503.69;4991176;28;20572;-86
2023/10/11 10:17:10;;;;;;;148.80;32.23;;;;;;;-141.97;37.97;47507.53;4979980;28;20195;-83
2023/10/11 10:19:39;;;;;;;26.03;11.23;;;;;;;-141.97;38.00;47503.69;5015032;28;20244;-88
2023/10/11 10:22:27;;;;;;;24.60;12.07;;;;;;;-141.97;37.47;47672.84;5007936;28;20194;-88
2023/10/11 10:24:56;;;;;;;20.73;10.77;;;;;;;-141.97;37.88;47530.59;5007607;28;20183;-88
2023/10/11 10:27:33;;;;;;;15.57;8.70;;;;;;;-141.97;37.77;47451.81;4991898;28;20258;-88
2023/10/11 10:30:00;;;;;;;16.17;9.03;;;;;;;-141.97;37.80;47390.31;4992317;28;20573;-87
2023/10/11 10:32:27;;;;;;;24.13;9.13;;;;;;;-141.97;37.48;47438.34;5010771;28;20213;-87
2023/10/11 10:35:20;;;;;;;28.30;10.40;;;;;;;-141.97;36.99;47492.16;5012690;28;20580;-88
2023/10/11 10:37:58;;;;;;;14.67;9.30;;;;;;;-141.97;37.39;47524.84;5013855;28;20666;-86
2023/10/11 10:40:25;;;;;;;14.43;8.97;;;;;;;-141.97;37.43;47457.56;4995408;28;20175;-88
2023/10/11 10:43:06;;;;;;;13.27;9.07;;;;;;;-141.97;38.12;47501.78;5013252;28;20178;-88
2023/10/11 10:45:31;;;;;;;13.70;9.20;;;;;;;-141.97;37.86;47497.94;5022671;28;20186;-85
2023/10/11 10:48:16;;;;;;;13.87;9.53;;;;;;;-141.97;37.44;47522.91;5033643;28;20565;-89
2023/10/11 10:51:05;;;;;;;18.63;12.03;;;;;;;-141.97;37.94;47478.72;5035259;28;20225;-89
2023/10/11 10:53:38;;;;;;;23.77;16.73;;;;;;;-141.97;37.34;47463.34;5033196;28;20170;-87
2023/10/11 10:56:04;;;;;;;24.97;18.73;;;;;;;-141.97;36.75;47649.78;5015825;28;20213;-87
2023/10/11 10:58:30;;;;;;;25.93;18.07;;;;;;;-141.97;36.95;47474.88;5018273;28;20674;-87
2023/10/11 11:00:59;;;;;;;27.07;18.83;;;;;;;-141.97;37.10;47432.59;5000606;28;20213;-88
2023/10/11 11:03:27;;;;;;;26.93;17.03;;;;;;;-141.97;37.52;47697.84;5033925;28;20158;-87
2023/10/11 11:05:56;;;;;;;25.10;15.30;;;;;;;-141.97;37.54;47624.78;5015821;28;20197;-86
2023/10/11 11:08:29;;;;;;;19.73;12.53;;;;;;;-141.97;37.05;47348.03;5032050;28;20217;-86
2023/10/11 11:11:18;;;;;;;14.40;9.97;;;;;;;-141.97;37.14;47349.94;5015351;28;20605;-86
2023/10/11 11:13:48;;;;;;;12.67;9.07;;;;;;;-141.97;37.67;47476.78;5033882;28;20198;-87
2023/10/11 11:16:16;;;;;;;12.50;8.93;;;;;;;-141.97;37.62;47513.31;5015318;28;20321;-86
2023/10/11 11:18:43;;;;;;;13.37;8.77;;;;;;;-141.97;37.54;47469.09;5033100;28;20190;-85
2023/10/11 11:21:25;;;;;;;13.53;8.70;;;;;;;-141.97;37.29;47688.22;5032759;28;20174;-86
2023/10/11 11:23:51;;;;;;;12.23;7.17;;;;;;;-141.97;37.02;47432.59;5033291;28;20165;-88
2023/10/11 11:26:21;;;;;;;12.40;7.47;;;;;;;-141.97;36.70;47394.16;5032478;28;20181;-86
2023/10/11 11:28:47;;;;;;;12.13;7.13;;;;;;;-141.97;37.30;47430.66;5004044;28;20178;-88
2023/10/11 11:31:13;;;;;;;12.20;6.90;;;;;;;-141.97;37.40;47451.81;5019530;28;20174;-86
2023/10/11 11:34:05;;;;;;;8.53;6.27;;;;;;;-141.97;37.83;47688.22;5021627;28;20178;-84
2023/10/11 11:36:31;;;;;;;8.70;6.53;;;;;;;-141.97;37.47;47509.47;5039678;28;20646;-85
2023/10/11 11:39:17;;;;;;;7.53;5.63;;;;;;;-141.97;37.57;47542.16;5016909;28;20660;-85
2023/10/11 11:41:52;;;;;;;7.37;4.97;;;;;;;-141.97;37.61;47592.13;5024904;28;20182;-86
2023/10/11 11:44:23;;;;;;;8.33;5.33;;;;;;;-141.97;37.31;47636.31;5039437;28;20162;-86
2023/10/11 11:46:54;;;;;;;10.73;7.30;;;;;;;-141.97;36.80;47607.50;5032505;28;20189;-85
2023/10/11 11:49:21;;;;;;;13.23;6.20;;;;;;;-141.97;36.28;47471.03;5032832;28;20202;-87
2023/10/11 11:51:51;;;;;;;12.30;7.97;;;;;;;-141.97;36.68;47499.84;5032362;28;20174;-86
2023/10/11 11:54:20;;;;;;;13.97;8.47;;;;;;;-141.97;36.33;47453.72;5032863;28;20186;-87
2023/10/11 11:56:47;;;;;;;18.67;10.90;;;;;;;-141.97;36.64;47549.84;5013589;28;20283;-88
2023/10/11 11:59:18;;;;;;;12.57;6.10;;;;;;;-141.97;36.62;47594.03;5039631;28;20524;-88
2023/10/11 12:01:49;;;;;;;13.83;8.73;;;;;;;-141.97;36.27;47472.94;5038412;28;20587;-89
2023/10/11 12:04:20;;;;;;;10.77;6.40;;;;;;;-141.97;36.43;47407.59;5033704;28;20170;-88
2023/10/11 12:06:48;;;;;;;12.20;8.40;;;;;;;-141.97;35.69;47432.59;5037523;28;20302;-88
2023/10/11 12:09:20;;;;;;;15.93;9.53;;;;;;;-141.97;34.85;47449.88;5034740;28;20634;-88
2023/10/11 12:11:49;;;;;;;14.80;8.90;;;;;;;-141.97;35.01;47496.00;5035273;28;20866;-87
2023/10/11 12:14:15;;;;;;;21.20;13.90;;;;;;;-141.97;34.21;47469.09;5017325;28;20411;-88
2023/10/11 12:16:44;;;;;;;15.52;10.38;;;;;;;-141.97;34.06;47597.88;5034679;28;20221;-88
2023/10/11 12:19:13;;;;;;;14.13;9.30;;;;;;;-141.97;34.20;47444.13;5016696;28;20423;-88
2023/10/11 12:21:39;;;;;;;13.52;8.45;;;;;;;-141.97;34.10;47588.28;5017323;28;20194;-87